Time;durP1;ratioP1;P1;durP2;ratioP2;P2;SDS_P1;SDS_P2;PMS_P1;PMS_P2;Temp;Humidity;BMP_temperature;BMP_pressure;BME280_temperature;BME280_humidity;BME280_pressure;Samples;Min_cycle;Max_cycle;Signal;HPM_P1;HPM_P2
2022/07/11 00:01:15;;;;;;;16.85;6.72;;;;;;;22.33;100.00;102266.78;5066504;28;20037;-48
2022/07/11 00:03:40;;;;;;;14.70;7.57;;;;;;;22.27;100.00;102265.03;5065996;28;20071;-48
2022/07/11 00:06:06;;;;;;;12.65;6.90;;;;;;;22.31;100.00;102268.91;5069619;28;20037;-52
2022/07/11 00:08:31;;;;;;;15.03;7.43;;;;;;;22.22;100.00;102263.00;5067020;28;20045;-48
2022/07/11 00:10:57;;;;;;;16.73;6.72;;;;;;;22.30;100.00;102261.81;5070729;28;20262;-48
2022/07/11 00:13:22;;;;;;;18.98;6.05;;;;;;;22.21;100.00;102264.06;5075404;28;20062;-48
2022/07/11 00:15:47;;;;;;;13.70;6.20;;;;;;;22.13;100.00;102259.81;5071826;28;20124;-49
2022/07/11 00:18:13;;;;;;;14.43;6.07;;;;;;;22.12;100.00;102250.00;5074445;28;20083;-47
2022/07/11 00:20:39;;;;;;;15.55;5.38;;;;;;;22.08;100.00;102254.25;5072106;28;20037;-49
2022/07/11 00:23:04;;;;;;;17.98;6.55;;;;;;;22.09;100.00;102257.84;5075276;28;20092;-49
2022/07/11 00:25:29;;;;;;;10.77;5.70;;;;;;;22.17;100.00;102255.56;5069146;28;20033;-51
2022/07/11 00:27:55;;;;;;;14.35;5.88;;;;;;;22.13;100.00;102251.66;5075492;28;20029;-46
2022/07/11 00:30:21;;;;;;;14.75;5.47;;;;;;;22.12;100.00;102247.28;5071198;28;20053;-52
2022/07/11 00:32:47;;;;;;;14.93;5.50;;;;;;;22.05;100.00;102258.31;5073000;28;20069;-50
2022/07/11 00:35:12;;;;;;;11.43;4.93;;;;;;;22.11;100.00;102247.53;5072175;28;20115;-51
2022/07/11 00:37:38;;;;;;;13.93;5.40;;;;;;;21.88;100.00;102244.56;5072335;28;20029;-52
2022/07/11 00:40:04;;;;;;;;;;;;;;;22.05;100.00;102252.88;5073403;28;20056;-49
2022/07/11 00:42:31;;;;;;;18.33;4.87;;;;;;;22.03;100.00;102248.72;5076175;28;19967;-49
2022/07/11 00:44:56;;;;;;;;;;;;;;;21.98;100.00;102252.13;5073150;28;20025;-52
2022/07/11 00:47:22;;;;;;;11.97;4.70;;;;;;;22.01;100.00;102253.56;5075925;28;19924;-49
2022/07/11 00:49:48;;;;;;;25.73;5.60;;;;;;;22.05;100.00;102260.19;5076908;28;20039;-51
2022/07/11 00:52:14;;;;;;;10.30;4.72;;;;;;;21.98;100.00;102256.78;5077637;28;20036;-48
2022/07/11 00:54:39;;;;;;;14.73;4.80;;;;;;;21.90;100.00;102250.59;5079565;28;20129;-51
2022/07/11 00:57:05;;;;;;;15.75;4.80;;;;;;;21.92;100.00;102248.50;5073328;28;20170;-52
2022/07/11 00:59:30;;;;;;;12.05;4.53;;;;;;;22.10;100.00;102246.69;5078499;28;20037;-50
2022/07/11 01:01:56;;;;;;;13.52;5.20;;;;;;;21.97;100.00;102250.50;5073183;28;20044;-49
2022/07/11 01:04:22;;;;;;;18.37;4.73;;;;;;;21.90;100.00;102244.34;5074256;28;20040;-50
2022/07/11 01:06:48;;;;;;;15.27;4.97;;;;;;;21.83;100.00;102246.38;5074071;28;20261;-49
2022/07/11 01:09:13;;;;;;;17.33;4.63;;;;;;;21.87;100.00;102248.34;5078321;28;20044;-50
2022/07/11 01:11:39;;;;;;;16.10;4.40;;;;;;;21.66;100.00;102246.22;5074266;28;20094;-49
2022/07/11 01:14:05;;;;;;;11.87;4.17;;;;;;;21.86;100.00;102237.72;5075860;28;20055;-48
2022/07/11 01:16:30;;;;;;;14.30;4.05;;;;;;;21.96;100.00;102240.66;5080317;28;20029;-46
2022/07/11 01:18:56;;;;;;;12.75;4.57;;;;;;;22.02;100.00;102241.63;5073722;28;20111;-50
2022/07/11 01:21:28;;;;;;;11.93;3.90;;;;;;;21.80;100.00;102231.31;5081099;28;20056;-49
2022/07/11 01:23:59;;;;;;;11.00;4.30;;;;;;;21.95;100.00;102240.91;5076542;28;20054;-50
2022/07/11 01:26:25;;;;;;;11.67;4.23;;;;;;;21.98;100.00;102237.72;5075280;28;20058;-51
2022/07/11 01:28:52;;;;;;;8.82;4.65;;;;;;;21.89;100.00;102243.50;5077142;28;20044;-52
2022/07/11 01:31:18;;;;;;;10.57;3.90;;;;;;;21.96;100.00;102248.03;5079254;28;20071;-49
2022/07/11 01:33:44;;;;;;;;;;;;;;;21.92;100.00;102248.50;5078454;28;20051;-53
2022/07/11 01:36:09;;;;;;;9.47;3.13;;;;;;;21.88;100.00;102247.28;5076174;28;19916;-50
2022/07/11 01:38:36;;;;;;;10.90;4.00;;;;;;;22.02;100.00;102245.16;5076236;28;20044;-49
2022/07/11 01:41:01;;;;;;;11.10;3.65;;;;;;;22.07;100.00;102255.34;5075901;28;20041;-51
2022/07/11 01:43:27;;;;;;;9.07;3.80;;;;;;;21.96;100.00;102250.75;5076991;28;20082;-47
2022/07/11 01:45:53;;;;;;;11.77;3.67;;;;;;;21.97;100.00;102250.50;5071629;28;20131;-47
2022/07/11 01:48:19;;;;;;;8.57;3.50;;;;;;;21.92;100.00;102251.22;5073555;28;20045;-50
2022/07/11 01:50:45;;;;;;;12.88;3.78;;;;;;;21.87;100.00;102253.00;5077384;28;20043;-48
2022/07/11 01:53:11;;;;;;;;;;;;;;;22.36;100.00;102255.38;5071906;28;20048;-52
2022/07/11 01:55:36;;;;;;;11.60;3.30;;;;;;;22.07;100.00;102249.88;5076746;28;19919;-51
2022/07/11 01:58:02;;;;;;;16.30;3.63;;;;;;;21.95;100.00;102254.53;5079922;28;20044;-50
2022/07/11 02:00:28;;;;;;;10.75;2.97;;;;;;;21.89;100.00;102251.66;5074862;28;20038;-51
2022/07/11 02:02:53;;;;;;;14.20;4.72;;;;;;;21.99;100.00;102244.81;5074088;28;20029;-49
2022/07/11 02:05:18;;;;;;;8.23;3.67;;;;;;;22.10;100.00;102249.41;5074828;28;20044;-52
2022/07/11 02:10:29;;;;;;;14.73;4.03;;;;;;;21.98;100.00;102246.69;5069852;28;20033;-50
2022/07/11 02:12:58;;;;;;;;;;;;;;;21.97;100.00;102246.94;5075051;28;20117;-48
2022/07/11 02:15:25;;;;;;;10.83;3.63;;;;;;;22.03;100.00;102243.25;5074661;28;19912;-47
2022/07/11 02:17:51;;;;;;;12.03;3.40;;;;;;;22.20;100.00;102246.91;5073918;28;20043;-49
2022/07/11 02:20:17;;;;;;;;;;;;;;;22.03;100.00;102244.09;5075122;28;20066;-49
2022/07/11 02:22:43;;;;;;;7.03;2.63;;;;;;;21.95;100.00;102241.72;5080983;28;19991;-51
2022/07/11 02:25:08;;;;;;;12.65;3.20;;;;;;;21.97;100.00;102247.75;5077172;28;20056;-50
2022/07/11 02:27:34;;;;;;;9.98;3.53;;;;;;;22.08;100.00;102240.66;5077464;28;20083;-49
2022/07/11 02:30:00;;;;;;;8.93;3.25;;;;;;;22.36;100.00;102241.75;5074224;28;20033;-51
2022/07/11 02:32:25;;;;;;;9.55;3.97;;;;;;;22.00;100.00;102235.56;5075932;28;20036;-49
2022/07/11 02:34:50;;;;;;;7.93;3.17;;;;;;;22.00;100.00;102238.31;5069239;28;20044;-50
2022/07/11 02:37:16;;;;;;;9.02;3.65;;;;;;;22.00;100.00;102241.03;5070860;28;20285;-54
2022/07/11 02:39:41;;;;;;;6.85;3.20;;;;;;;22.04;100.00;102234.03;5070802;28;20039;-50
2022/07/11 02:42:07;;;;;;;10.98;4.00;;;;;;;21.92;100.00;102239.50;5072788;28;20060;-49
2022/07/11 02:44:32;;;;;;;12.27;2.70;;;;;;;21.88;100.00;102236.41;5071014;28;20063;-49
2022/07/11 02:46:58;;;;;;;14.82;4.65;;;;;;;21.86;100.00;102230.38;5070219;28;20486;-48
2022/07/11 02:49:25;;;;;;;7.73;2.73;;;;;;;21.87;100.00;102233.94;5075740;28;20227;-48
2022/07/11 02:51:50;;;;;;;8.15;2.75;;;;;;;21.86;100.00;102235.81;5075255;28;20040;-51
2022/07/11 02:54:16;;;;;;;7.90;3.33;;;;;;;21.83;100.00;102228.13;5079234;28;20041;-52
2022/07/11 02:56:41;;;;;;;9.50;2.75;;;;;;;21.89;100.00;102227.16;5072752;28;20096;-50
2022/07/11 02:59:07;;;;;;;7.70;2.80;;;;;;;21.75;100.00;102226.59;5071289;28;20037;-48
2022/07/11 03:01:33;;;;;;;14.80;2.60;;;;;;;21.83;100.00;102228.13;5077268;28;20041;-51
2022/07/11 03:03:59;;;;;;;;;;;;;;;21.86;100.00;102233.09;5077944;28;20029;-50
2022/07/11 03:06:25;;;;;;;11.63;3.93;;;;;;;21.94;100.00;102236.53;5076640;28;19923;-49
2022/07/11 03:08:50;;;;;;;;;;;;;;;21.89;100.00;102234.53;5067090;28;20041;-47
2022/07/11 03:11:16;;;;;;;7.27;2.17;;;;;;;21.82;100.00;102233.81;5070296;28;19924;-48
2022/07/11 03:13:41;;;;;;;9.05;2.50;;;;;;;21.89;100.00;102234.53;5071582;28;20120;-52
2022/07/11 03:16:07;;;;;;;6.93;2.25;;;;;;;21.96;100.00;102237.13;5070823;28;20081;-48
2022/07/11 03:18:33;;;;;;;7.07;2.75;;;;;;;21.94;100.00;102242.78;5067029;28;20037;-51
2022/07/11 03:20:58;;;;;;;6.80;2.45;;;;;;;21.94;100.00;102242.00;5070169;28;20078;-51
2022/07/11 03:23:23;;;;;;;7.65;3.53;;;;;;;21.88;100.00;102238.31;5069026;28;20036;-51
2022/07/11 03:25:49;;;;;;;8.90;2.70;;;;;;;21.31;100.00;102239.66;5071131;28;20033;-51
2022/07/11 03:28:15;;;;;;;7.50;2.38;;;;;;;21.63;100.00;102242.88;5073816;28;20297;-51
2022/07/11 03:30:40;;;;;;;4.40;2.58;;;;;;;21.63;100.00;102236.63;5070402;28;20090;-46
2022/07/11 03:33:05;;;;;;;8.50;2.47;;;;;;;21.42;100.00;102241.56;5070983;28;20064;-50
2022/07/11 03:35:40;;;;;;;7.47;2.25;;;;;;;21.63;100.00;102240.16;5076851;28;20324;-50
2022/07/11 03:38:07;;;;;;;10.10;2.00;;;;;;;21.77;100.00;102250.88;5070563;28;20040;-48
2022/07/11 03:40:32;;;;;;;7.45;2.10;;;;;;;21.77;100.00;102246.22;5067518;28;20029;-51
2022/07/11 03:42:58;;;;;;;4.23;1.70;;;;;;;21.85;100.00;102242.31;5065847;28;20077;-53
2022/07/11 03:45:23;;;;;;;5.53;2.05;;;;;;;21.04;100.00;102251.78;5068828;28;20286;-50
2022/07/11 03:47:48;;;;;;;4.68;1.63;;;;;;;21.72;100.00;102250.75;5067901;28;20052;-50
2022/07/11 03:50:14;;;;;;;7.72;2.15;;;;;;;21.63;100.00;102247.53;5068789;28;20044;-47
2022/07/11 03:52:40;;;;;;;8.48;2.00;;;;;;;21.77;100.00;102248.16;5072185;28;20029;-52
2022/07/11 03:55:07;;;;;;;6.38;1.98;;;;;;;21.84;100.00;102258.91;5070337;28;20044;-48
2022/07/11 03:57:36;;;;;;;7.60;2.03;;;;;;;21.61;100.00;102250.47;5071195;28;20127;-47
2022/07/11 04:00:09;;;;;;;4.80;1.90;;;;;;;21.74;100.00;102257.59;5071059;28;20033;-48
2022/07/11 04:02:35;;;;;;;7.00;1.90;;;;;;;21.89;100.00;102251.66;5076375;28;20037;-49
2022/07/11 04:05:02;;;;;;;8.60;2.03;;;;;;;21.86;100.00;102257.59;5078104;28;20044;-49
2022/07/11 04:07:28;;;;;;;4.90;1.37;;;;;;;21.76;100.00;102257.38;5075480;28;20025;-50
2022/07/11 04:09:54;;;;;;;5.35;2.05;;;;;;;21.85;100.00;102258.66;5068549;28;20054;-49
2022/07/11 04:12:20;;;;;;;7.43;1.90;;;;;;;21.85;100.00;102252.41;5067844;28;20103;-50
2022/07/11 04:14:46;;;;;;;7.82;1.95;;;;;;;21.85;100.00;102255.94;5067113;28;20025;-51
2022/07/11 04:17:12;;;;;;;11.07;2.17;;;;;;;21.62;100.00;102254.84;5070880;28;20083;-47
2022/07/11 04:19:38;;;;;;;3.72;1.33;;;;;;;21.63;100.00;102252.97;5074902;28;20039;-50
2022/07/11 04:22:05;;;;;;;7.70;2.20;;;;;;;21.74;100.00;102256.78;5071514;28;20032;-49
2022/07/11 04:24:30;;;;;;;;;;;;;;;21.80;100.00;102255.00;5072027;28;20033;-48
2022/07/11 04:26:57;;;;;;;3.57;1.30;;;;;;;21.80;100.00;102257.72;5075636;28;19913;-46
2022/07/11 04:29:23;;;;;;;3.37;1.70;;;;;;;21.73;100.00;102255.13;5079183;28;20036;-51
2022/07/11 04:31:50;;;;;;;;;;;;;;;21.66;100.00;102262.56;5076228;28;20043;-50
2022/07/11 04:34:16;;;;;;;4.03;1.70;;;;;;;21.70;100.00;102261.06;5076887;28;19935;-47
2022/07/11 04:36:43;;;;;;;5.15;2.15;;;;;;;21.56;100.00;102247.63;5074862;28;20036;-49
2022/07/11 04:39:08;;;;;;;8.43;3.08;;;;;;;21.70;100.00;102252.88;5079079;28;20047;-50
2022/07/11 04:41:34;;;;;;;8.07;2.30;;;;;;;21.79;100.00;102262.34;5077714;28;20162;-50
2022/07/11 04:44:00;;;;;;;42.67;22.17;;;;;;;21.62;100.00;102265.72;5073496;28;20063;-48
2022/07/11 04:46:26;;;;;;;20.85;9.73;;;;;;;21.52;100.00;102256.50;5075016;28;20197;-48
2022/07/11 04:48:51;;;;;;;17.05;5.07;;;;;;;21.68;100.00;102265.88;5073389;28;20071;-51
2022/07/11 04:51:17;;;;;;;7.03;3.63;;;;;;;21.78;100.00;102272.38;5075939;28;20029;-47
2022/07/11 04:53:43;;;;;;;46.08;23.35;;;;;;;21.75;100.00;102272.06;5075745;28;20048;-52
2022/07/11 04:56:08;;;;;;;39.47;19.63;;;;;;;21.82;100.00;102271.94;5074980;28;20022;-47
2022/07/11 04:58:35;;;;;;;10.57;3.78;;;;;;;21.77;100.00;102270.72;5073049;28;20060;-49
2022/07/11 05:01:02;;;;;;;11.10;5.47;;;;;;;21.73;100.00;102269.56;5074452;28;20044;-50
2022/07/11 05:03:28;;;;;;;15.10;8.20;;;;;;;21.91;100.00;102263.19;5079827;28;20049;-46
2022/07/11 05:05:54;;;;;;;;;;;;;;;21.94;100.00;102259.13;5074525;28;20093;-49
2022/07/11 05:08:19;;;;;;;16.07;8.87;;;;;;;21.96;100.00;102267.09;5075095;28;19943;-47
2022/07/11 05:10:45;;;;;;;9.75;4.60;;;;;;;21.62;100.00;102262.19;5076106;28;20036;-50
2022/07/11 05:13:10;;;;;;;16.85;6.40;;;;;;;21.76;100.00;102273.72;5079019;28;20056;-49
2022/07/11 05:15:37;;;;;;;10.68;3.60;;;;;;;21.58;100.00;102269.19;5071614;28;20081;-56
2022/07/11 05:18:03;;;;;;;7.87;4.10;;;;;;;21.84;100.00;102278.78;5074876;28;20060;-49
2022/07/11 05:20:28;;;;;;;15.40;7.45;;;;;;;22.02;100.00;102277.03;5073529;28;20020;-47
2022/07/11 05:22:54;;;;;;;5.07;2.50;;;;;;;22.01;100.00;102284.34;5072436;28;20064;-47
2022/07/11 05:25:20;;;;;;;7.95;2.30;;;;;;;22.62;100.00;102285.94;5077597;28;20039;-48
2022/07/11 05:27:46;;;;;;;4.25;2.10;;;;;;;22.67;100.00;102288.78;5080301;28;20036;-51
2022/07/11 05:30:11;;;;;;;3.65;1.67;;;;;;;22.24;100.00;102282.66;5078918;28;20067;-51
2022/07/11 05:32:37;;;;;;;10.57;2.40;;;;;;;22.03;100.00;102289.56;5076435;28;20044;-47
2022/07/11 05:35:04;;;;;;;3.17;2.03;;;;;;;22.27;100.00;102286.81;5073860;28;20021;-49
2022/07/11 05:37:29;;;;;;;4.80;2.17;;;;;;;22.00;100.00;102284.59;5078167;28;20117;-49
2022/07/11 05:39:55;;;;;;;3.03;1.38;;;;;;;22.25;100.00;102294.41;5076770;28;20032;-48
2022/07/11 05:42:21;;;;;;;5.30;1.90;;;;;;;22.33;100.00;102300.31;5072742;28;20049;-51
2022/07/11 05:44:48;;;;;;;4.78;2.00;;;;;;;22.39;100.00;102300.41;5074557;28;20054;-51
2022/07/11 05:47:14;;;;;;;3.03;1.67;;;;;;;22.38;100.00;102299.63;5068360;28;20040;-51
2022/07/11 05:49:40;;;;;;;3.03;1.45;;;;;;;22.47;100.00;102302.78;5071503;28;20060;-51
2022/07/11 05:52:05;;;;;;;10.25;2.85;;;;;;;22.49;100.00;102303.41;5069734;28;20042;-49
2022/07/11 05:54:31;;;;;;;6.45;2.45;;;;;;;22.39;100.00;102304.00;5073128;28;20033;-50
2022/07/11 05:56:56;;;;;;;8.77;2.03;;;;;;;22.46;100.00;102299.25;5068647;28;20051;-48
2022/07/11 05:59:21;;;;;;;6.63;2.10;;;;;;;22.38;100.00;102305.06;5075540;28;20051;-49
2022/07/11 06:01:47;;;;;;;7.03;1.90;;;;;;;22.58;100.00;102312.00;5067925;28;20029;-52
2022/07/11 06:04:13;;;;;;;6.97;1.58;;;;;;;22.70;100.00;102303.81;5075881;28;20038;-52
2022/07/11 06:06:39;;;;;;;4.22;2.45;;;;;;;22.81;100.00;102305.69;5068210;28;20055;-48
2022/07/11 06:09:05;;;;;;;3.17;1.70;;;;;;;22.81;100.00;102308.41;5077134;28;20024;-50
2022/07/11 06:11:31;;;;;;;;;;;;;;;22.83;100.00;102311.72;5070698;28;20047;-49
2022/07/11 06:13:57;;;;;;;5.40;2.20;;;;;;;22.82;100.00;102309.22;5069674;28;19952;-51
2022/07/11 06:16:23;;;;;;;2.95;1.48;;;;;;;22.85;100.00;102306.84;5067647;28;20052;-52
2022/07/11 06:18:50;;;;;;;5.88;1.90;;;;;;;22.99;100.00;102304.66;5073294;28;20061;-50
2022/07/11 06:21:16;;;;;;;3.60;2.10;;;;;;;23.13;100.00;102316.09;5070216;28;20048;-52
2022/07/11 06:23:42;;;;;;;2.25;1.48;;;;;;;23.15;100.00;102315.84;5067625;28;20032;-51
2022/07/11 06:26:08;;;;;;;6.43;1.73;;;;;;;23.29;100.00;102310.94;5073280;28;20040;-48
2022/07/11 06:28:34;;;;;;;;;;;;;;;23.22;100.00;102308.34;5076551;28;20044;-50
2022/07/11 06:31:01;;;;;;;2.97;1.93;;;;;;;23.41;100.00;102308.16;5070042;28;19912;-49
2022/07/11 06:33:27;;;;;;;2.67;1.57;;;;;;;22.99;100.00;102304.66;5070979;28;20036;-50
2022/07/11 06:35:53;;;;;;;;;;;;;;;23.27;100.00;102303.00;5069497;28;20092;-52
2022/07/11 06:38:18;;;;;;;3.77;1.70;;;;;;;23.36;100.00;102308.06;5071592;28;19913;-49
2022/07/11 06:40:45;;;;;;;1.50;1.02;;;;;;;23.53;100.00;102308.91;5071704;28;20033;-48
2022/07/11 06:43:11;;;;;;;3.37;1.53;;;;;;;23.61;100.00;102311.22;5079443;28;20084;-47
2022/07/11 06:45:37;;;;;;;3.85;1.13;;;;;;;23.72;100.00;102305.91;5074919;28;20029;-52
2022/07/11 06:48:03;;;;;;;3.90;1.47;;;;;;;23.54;100.00;102305.09;5072010;28;20056;-51
2022/07/11 06:50:28;;;;;;;2.70;1.58;;;;;;;23.70;100.00;102299.88;5073613;28;20110;-48
2022/07/11 06:52:54;;;;;;;;;;;;;;;23.57;100.00;102307.34;5074277;28;20101;-52
2022/07/11 06:55:20;;;;;;;2.50;1.20;;;;;;;23.29;100.00;102309.03;5071897;28;19924;-53
2022/07/11 06:57:45;;;;;;;2.20;1.00;;;;;;;23.32;100.00;102305.84;5071547;28;20064;-49
2022/07/11 07:00:11;;;;;;;2.13;1.30;;;;;;;23.49;100.00;102308.56;5068972;28;20044;-51
2022/07/11 07:02:38;;;;;;;2.77;1.30;;;;;;;23.57;100.00;102307.34;5067362;28;20043;-48
2022/07/11 07:05:05;;;;;;;1.17;0.90;;;;;;;23.77;100.00;102308.75;5073283;28;20037;-49
2022/07/11 07:07:31;;;;;;;4.00;1.17;;;;;;;23.89;100.00;102311.38;5069934;28;20112;-51
2022/07/11 07:09:56;;;;;;;3.33;1.00;;;;;;;23.73;100.00;102302.94;5072503;28;20068;-52
2022/07/11 07:12:22;;;;;;;3.10;1.10;;;;;;;23.60;100.00;102301.38;5070546;28;20090;-54
2022/07/11 07:14:48;;;;;;;;;;;;;;;23.74;100.00;102296.41;5075046;28;20091;-52
2022/07/11 07:17:14;;;;;;;2.47;0.83;;;;;;;23.80;100.00;102300.03;5070543;28;19917;-53
2022/07/11 07:19:40;;;;;;;1.05;0.70;;;;;;;23.87;100.00;102303.44;5070938;28;20067;-51
2022/07/11 07:22:05;;;;;;;4.13;1.20;;;;;;;24.14;100.00;102305.47;5068844;28;20040;-50
2022/07/11 07:24:32;;;;;;;2.92;1.02;;;;;;;24.40;100.00;102297.59;5070562;28;20041;-51
2022/07/11 07:26:58;;;;;;;2.80;1.30;;;;;;;24.56;100.00;102306.81;5067872;28;20050;-51
2022/07/11 07:29:26;;;;;;;1.00;0.60;;;;;;;24.71;100.00;102311.69;5068763;28;20054;-52
2022/07/11 07:31:52;;;;;;;2.77;0.80;;;;;;;24.66;100.00;102308.84;5068052;28;20033;-50
2022/07/11 07:34:21;;;;;;;1.53;0.63;;;;;;;24.23;100.00;102302.31;5074633;28;20088;-50
2022/07/11 07:36:47;;;;;;;1.27;0.57;;;;;;;24.39;100.00;102309.63;5068181;28;20048;-52
2022/07/11 07:39:13;;;;;;;0.52;0.50;;;;;;;24.38;100.00;102312.63;5068654;28;20029;-51
2022/07/11 07:41:39;;;;;;;1.63;0.68;;;;;;;24.30;100.00;102305.69;5069686;28;20106;-53
2022/07/11 07:44:04;;;;;;;;;;;;;;;24.40;100.00;102319.47;5076041;28;20058;-49
2022/07/11 07:46:30;;;;;;;1.03;0.50;;;;;;;24.60;100.00;102315.34;5068687;28;19925;-52
2022/07/11 07:48:55;;;;;;;1.27;0.60;;;;;;;24.53;100.00;102312.00;5071814;28;20091;-51
2022/07/11 07:51:21;;;;;;;1.05;0.60;;;;;;;24.56;100.00;102322.41;5075992;28;20048;-49
2022/07/11 07:53:47;;;;;;;1.80;0.60;;;;;;;24.57;100.00;102326.81;5075946;28;20038;-50
2022/07/11 07:56:13;;;;;;;;;;;;;;;24.57;100.00;102326.81;5076453;28;20116;-51
2022/07/11 07:58:38;;;;;;;0.70;0.40;;;;;;;24.60;100.00;102323.56;5073403;28;19947;-50
2022/07/11 08:03:49;;;;;;;2.83;0.90;;;;;;;24.16;100.00;102325.19;5072531;28;20044;-48
2022/07/11 08:06:15;;;;;;;2.15;0.80;;;;;;;24.23;100.00;102322.28;5073274;28;20068;-46
2022/07/11 08:08:40;;;;;;;1.50;0.90;;;;;;;24.14;100.00;102327.34;5073524;28;20041;-48
2022/07/11 08:11:06;;;;;;;2.40;0.88;;;;;;;24.02;100.00;102332.09;5072846;28;20033;-47
2022/07/11 08:13:31;;;;;;;1.30;0.60;;;;;;;24.21;100.00;102329.91;5074217;28;20056;-49
2022/07/11 08:15:57;;;;;;;0.93;0.50;;;;;;;24.34;100.00;102336.91;5076039;28;20033;-49
2022/07/11 08:18:22;;;;;;;2.45;0.80;;;;;;;24.42;100.00;102336.47;5075997;28;20037;-48
2022/07/11 08:20:48;;;;;;;1.23;0.70;;;;;;;24.47;100.00;102339.28;5081076;28;20047;-49
2022/07/11 08:23:13;;;;;;;1.08;0.60;;;;;;;24.67;100.00;102340.59;5078946;28;20060;-49
2022/07/11 08:25:40;;;;;;;0.77;0.50;;;;;;;24.72;100.00;102337.94;5080418;28;20037;-47
2022/07/11 08:28:05;;;;;;;0.80;0.60;;;;;;;24.80;100.00;102344.91;5080737;28;20028;-46
2022/07/11 08:30:32;;;;;;;0.57;0.37;;;;;;;24.85;100.00;102344.13;5078697;28;20097;-51
2022/07/11 08:32:58;;;;;;;2.07;0.77;;;;;;;24.94;100.00;102345.34;5072750;28;20033;-49
2022/07/11 08:35:24;;;;;;;1.40;0.80;;;;;;;24.89;100.00;102342.53;5076914;28;20159;-49
2022/07/11 08:37:49;;;;;;;2.25;0.68;;;;;;;24.77;100.00;102338.03;5073568;28;20029;-50
2022/07/11 08:40:15;;;;;;;0.60;0.50;;;;;;;24.96;100.00;102343.16;5075794;28;20041;-47
2022/07/11 08:42:43;;;;;;;1.50;0.47;;;;;;;25.21;100.00;102333.56;5075959;28;20053;-51
2022/07/11 08:45:16;;;;;;;1.07;0.63;;;;;;;24.73;100.00;102328.66;5076399;28;20032;-50
2022/07/11 08:47:43;;;;;;;1.97;0.40;;;;;;;24.82;100.00;102329.06;5073584;28;20056;-51
2022/07/11 08:50:12;;;;;;;0.60;0.30;;;;;;;25.22;100.00;102318.78;5073483;28;20041;-51
2022/07/11 08:52:38;;;;;;;2.20;0.40;;;;;;;25.55;100.00;102332.53;5072243;28;20033;-50
2022/07/11 08:55:07;;;;;;;1.37;0.80;;;;;;;25.73;100.00;102325.81;5076343;28;20055;-49
2022/07/11 08:57:35;;;;;;;1.13;0.57;;;;;;;25.80;100.00;102323.66;5075667;28;20097;-50
2022/07/11 09:00:01;;;;;;;2.30;0.63;;;;;;;25.77;100.00;102332.41;5070869;28;20162;-49
2022/07/11 09:02:28;;;;;;;0.40;0.40;;;;;;;25.79;100.00;102332.16;5071912;28;20072;-48
2022/07/11 09:04:54;;;;;;;0.23;0.20;;;;;;;26.12;100.00;102321.94;5068309;28;20029;-50
2022/07/11 09:07:19;;;;;;;;;;;;;;;26.41;100.00;102325.16;5072262;28;20037;-50
2022/07/11 09:09:45;;;;;;;2.80;1.60;;;;;;;26.53;100.00;102318.63;5072398;28;19916;-48
2022/07/11 09:12:12;;;;;;;;;;;;;;;26.01;100.00;102315.59;5069387;28;20128;-52
2022/07/11 09:14:37;;;;;;;5.68;2.00;;;;;;;26.24;100.00;102322.63;5069506;28;19913;-51
2022/07/11 09:17:05;;;;;;;8.03;3.67;;;;;;;26.39;100.00;102324.59;5068565;28;20055;-51
2022/07/11 09:19:32;;;;;;;2.47;0.80;;;;;;;26.34;100.00;102335.56;5071678;28;20033;-49
2022/07/11 09:25:21;;;;;;;0.60;0.50;;;;;;;26.70;100.00;102335.69;5071602;28;20036;-51
2022/07/11 09:27:54;;;;;;;1.13;0.60;;;;;;;26.77;100.00;102330.78;5074060;28;20029;-49
2022/07/11 09:30:27;;;;;;;4.93;2.17;;;;;;;26.62;100.00;102325.25;5072215;28;20060;-51
2022/07/11 09:33:01;;;;;;;1.80;1.00;;;;;;;26.12;100.00;102328.28;5072568;28;20219;-48
2022/07/11 09:35:31;;;;;;;1.47;0.50;;;;;;;26.11;100.00;102328.53;5071186;28;20029;-52
2022/07/11 09:37:57;;;;;;;0.43;0.33;;;;;;;25.92;100.00;102331.69;5069411;28;20030;-47
2022/07/11 09:40:22;;;;;;;;;;;;;;;25.96;100.00;102337.47;5066589;28;20044;-50
2022/07/11 09:42:52;;;;;;;0.90;0.50;;;;;;;25.94;100.00;102331.44;5071370;28;19916;-49
2022/07/11 09:45:22;;;;;;;1.60;0.50;;;;;;;26.10;100.00;102327.72;5068271;28;20080;-48
2022/07/11 09:47:51;;;;;;;14.37;7.40;;;;;;;26.34;100.00;102321.84;5067376;28;20030;-49
2022/07/11 09:50:23;;;;;;;44.00;20.07;;;;;;;26.12;100.00;102325.53;5069126;28;20040;-50
2022/07/11 09:53:03;;;;;;;7.13;3.80;;;;;;;26.11;100.00;102328.53;5069606;28;20032;-49
2022/07/11 09:55:31;;;;;;;1.60;0.70;;;;;;;26.32;100.00;102329.50;5066816;28;20016;-49
2022/07/11 09:57:56;;;;;;;3.27;1.80;;;;;;;26.58;100.00;102332.38;5067807;28;20028;-49
2022/07/11 10:00:22;;;;;;;;;;;;;;;26.30;100.00;102332.50;5069682;28;20052;-50
2022/07/11 10:02:47;;;;;;;2.73;1.50;;;;;;;26.49;100.00;102341.09;5071705;28;19912;-50
2022/07/11 10:05:12;;;;;;;;;;;;;;;26.60;100.00;102341.16;5067005;28;20056;-52
2022/07/11 10:07:38;;;;;;;2.63;0.60;;;;;;;26.44;100.00;102345.75;5069234;28;19924;-50
2022/07/11 10:10:04;;;;;;;;;;;;;;;26.37;100.00;102337.75;5070259;28;20060;-47
2022/07/11 10:12:31;;;;;;;0.93;0.60;;;;;;;26.34;100.00;102338.28;5068624;28;19966;-52
2022/07/11 10:15:00;;;;;;;75.37;39.20;;;;;;;26.43;100.00;102338.63;5071432;28;20021;-49
2022/07/11 10:17:48;;;;;;;8.67;3.97;;;;;;;26.56;100.00;102329.88;5070921;28;20075;-50
2022/07/11 10:20:26;;;;;;;15.37;9.13;;;;;;;26.49;100.00;102335.59;5068793;28;20029;-48
2022/07/11 10:23:10;;;;;;;2.83;1.33;;;;;;;25.99;100.00;102336.94;5065730;28;20033;-51
2022/07/11 10:25:46;;;;;;;5.00;2.70;;;;;;;26.19;100.00;102336.31;5069085;28;20121;-54
2022/07/11 10:28:15;;;;;;;13.00;7.07;;;;;;;26.40;100.00;102331.72;5071866;28;20041;-52
2022/07/11 10:30:50;;;;;;;21.63;9.77;;;;;;;26.33;100.00;102340.19;5067233;28;20105;-50
2022/07/11 10:33:17;;;;;;;5.80;3.30;;;;;;;26.40;100.00;102341.88;5065025;28;20064;-50
2022/07/11 10:35:45;;;;;;;4.37;2.40;;;;;;;26.47;100.00;102340.53;5069148;28;20037;-48
2022/07/11 10:38:11;;;;;;;3.80;1.80;;;;;;;26.30;100.00;102342.66;5069524;28;20036;-50
2022/07/11 10:40:48;;;;;;;0.70;0.60;;;;;;;26.19;100.00;102341.78;5070776;28;20033;-51
2022/07/11 10:43:35;;;;;;;2.95;1.55;;;;;;;26.56;100.00;102338.09;5073212;28;20044;-46
2022/07/11 10:46:18;;;;;;;1.97;0.90;;;;;;;26.74;100.00;102347.75;5067734;28;20037;-50
2022/07/11 10:49:09;;;;;;;3.10;1.40;;;;;;;26.58;100.00;102352.38;5068434;28;20049;-52
2022/07/11 10:51:41;;;;;;;1.87;1.13;;;;;;;26.78;100.00;102342.56;5067621;28;20033;-51
2022/07/11 10:54:19;;;;;;;2.40;0.83;;;;;;;27.03;100.00;102347.34;5069734;28;20056;-51
2022/07/11 10:56:57;;;;;;;2.43;1.10;;;;;;;27.17;100.00;102350.38;5072836;28;20092;-52
2022/07/11 10:59:23;;;;;;;3.77;1.50;;;;;;;27.33;100.00;102350.38;5070008;28;20047;-50
2022/07/11 11:02:07;;;;;;;;;;;;;;;27.21;100.00;102342.41;5067022;28;20045;-52
2022/07/11 11:04:57;;;;;;;2.07;1.07;;;;;;;27.37;100.00;102354.25;5069169;28;19920;-49
2022/07/11 11:07:32;;;;;;;1.80;0.83;;;;;;;26.80;100.00;102347.81;5070731;28;20033;-53
2022/07/11 11:09:58;;;;;;;3.50;1.80;;;;;;;27.01;100.00;102349.53;5068778;28;20043;-51
2022/07/11 11:13:04;;;;;;;2.53;1.00;;;;;;;26.86;100.00;102350.31;5067885;28;20831;-53
2022/07/11 11:15:33;;;;;;;4.93;2.77;;;;;;;27.08;100.00;102341.03;5068042;28;20037;-53
2022/07/11 11:18:21;;;;;;;4.93;2.10;;;;;;;27.13;100.00;102342.97;5070845;28;20033;-52
2022/07/11 11:20:47;;;;;;;2.33;0.70;;;;;;;27.42;100.00;102350.69;5068400;28;20033;-50
2022/07/11 11:23:21;;;;;;;3.33;1.77;;;;;;;27.64;100.00;102344.94;5068151;28;20050;-50
2022/07/11 11:25:50;;;;;;;3.10;1.43;;;;;;;27.85;100.00;102354.00;5069750;28;20048;-49
2022/07/11 11:28:20;;;;;;;3.90;2.30;;;;;;;27.90;100.00;102351.22;5068700;28;20032;-49
2022/07/11 11:30:53;;;;;;;2.80;1.43;;;;;;;28.04;100.00;102348.75;5072110;28;20108;-50